sensor_id;sensor_type;location;lat;lon;timestamp;temperature;humidity
420;DHT22;42600;54.408;13.016;2023-10-08T00:02:09;11.10;74.20
420;DHT22;42600;54.408;13.016;2023-10-08T00:04:36;11.10;73.90
420;DHT22;42600;54.408;13.016;2023-10-08T00:07:03;11.10;73.50
420;DHT22;42600;54.408;13.016;2023-10-08T00:09:32;11.10;73.60
420;DHT22;42600;54.408;13.016;2023-10-08T00:12:01;11.10;74.00
420;DHT22;42600;54.408;13.016;2023-10-08T00:14:28;11.10;74.20
420;DHT22;42600;54.408;13.016;2023-10-08T00:16:56;11.10;74.30
420;DHT22;42600;54.408;13.016;2023-10-08T00:19:23;11.00;74.80
420;DHT22;42600;54.408;13.016;2023-10-08T00:21:50;11.10;74.00
420;DHT22;42600;54.408;13.016;2023-10-08T00:24:18;11.00;74.00
420;DHT22;42600;54.408;13.016;2023-10-08T00:26:52;11.00;74.10
420;DHT22;42600;54.408;13.016;2023-10-08T00:29:20;11.00;74.00
420;DHT22;42600;54.408;13.016;2023-10-08T00:31:48;11.00;74.50
420;DHT22;42600;54.408;13.016;2023-10-08T00:34:17;11.00;74.20
420;DHT22;42600;54.408;13.016;2023-10-08T00:36:46;11.00;73.80
420;DHT22;42600;54.408;13.016;2023-10-08T00:39:13;11.00;74.10
420;DHT22;42600;54.408;13.016;2023-10-08T00:41:42;10.90;74.60
420;DHT22;42600;54.408;13.016;2023-10-08T00:44:09;10.90;75.10
420;DHT22;42600;54.408;13.016;2023-10-08T00:46:39;10.90;74.60
420;DHT22;42600;54.408;13.016;2023-10-08T00:49:13;10.80;74.50
420;DHT22;42600;54.408;13.016;2023-10-08T00:51:59;10.80;74.20
420;DHT22;42600;54.408;13.016;2023-10-08T00:54:47;10.80;74.30
420;DHT22;42600;54.408;13.016;2023-10-08T00:57:22;10.80;74.80
420;DHT22;42600;54.408;13.016;2023-10-08T00:59:49;10.70;75.30
420;DHT22;42600;54.408;13.016;2023-10-08T01:02:19;10.70;75.70
420;DHT22;42600;54.408;13.016;2023-10-08T01:04:49;10.70;75.80
420;DHT22;42600;54.408;13.016;2023-10-08T01:07:18;10.70;75.90
420;DHT22;42600;54.408;13.016;2023-10-08T01:09:45;10.70;76.20
420;DHT22;42600;54.408;13.016;2023-10-08T01:12:18;10.60;76.10
420;DHT22;42600;54.408;13.016;2023-10-08T01:14:48;10.60;75.90
420;DHT22;42600;54.408;13.016;2023-10-08T01:17:19;10.60;75.80
420;DHT22;42600;54.408;13.016;2023-10-08T01:19:51;10.50;75.60
420;DHT22;42600;54.408;13.016;2023-10-08T01:22:21;10.40;76.40
420;DHT22;42600;54.408;13.016;2023-10-08T01:24:48;10.40;76.50
420;DHT22;42600;54.408;13.016;2023-10-08T01:27:16;10.40;76.60
420;DHT22;42600;54.408;13.016;2023-10-08T01:29:49;10.40;76.80
420;DHT22;42600;54.408;13.016;2023-10-08T01:32:16;10.30;77.10
420;DHT22;42600;54.408;13.016;2023-10-08T01:34:44;10.30;77.30
420;DHT22;42600;54.408;13.016;2023-10-08T01:37:12;10.30;77.10
420;DHT22;42600;54.408;13.016;2023-10-08T01:39:40;10.30;77.20
420;DHT22;42600;54.408;13.016;2023-10-08T01:42:08;10.30;77.70
420;DHT22;42600;54.408;13.016;2023-10-08T01:44:41;10.20;77.50
420;DHT22;42600;54.408;13.016;2023-10-08T01:47:10;10.20;77.40
420;DHT22;42600;54.408;13.016;2023-10-08T01:49:38;10.20;77.80
420;DHT22;42600;54.408;13.016;2023-10-08T01:52:05;10.10;77.40
420;DHT22;42600;54.408;13.016;2023-10-08T01:54:38;10.10;77.10
420;DHT22;42600;54.408;13.016;2023-10-08T01:57:06;10.10;76.60
420;DHT22;42600;54.408;13.016;2023-10-08T01:59:35;10.00;76.80
420;DHT22;42600;54.408;13.016;2023-10-08T02:02:03;10.00;76.60
420;DHT22;42600;54.408;13.016;2023-10-08T02:04:31;10.00;76.50
420;DHT22;42600;54.408;13.016;2023-10-08T02:06:58;9.90;76.20
420;DHT22;42600;54.408;13.016;2023-10-08T02:09:25;9.90;76.20
420;DHT22;42600;54.408;13.016;2023-10-08T02:11:52;9.90;76.70
420;DHT22;42600;54.408;13.016;2023-10-08T02:14:21;9.90;76.80
420;DHT22;42600;54.408;13.016;2023-10-08T02:16:48;9.90;76.90
420;DHT22;42600;54.408;13.016;2023-10-08T02:19:15;9.90;77.00
420;DHT22;42600;54.408;13.016;2023-10-08T02:21:44;9.80;76.80
420;DHT22;42600;54.408;13.016;2023-10-08T02:24:12;9.80;76.90
420;DHT22;42600;54.408;13.016;2023-10-08T02:26:38;9.70;77.20
420;DHT22;42600;54.408;13.016;2023-10-08T02:29:05;9.70;77.70
420;DHT22;42600;54.408;13.016;2023-10-08T02:31:37;9.70;78.40
420;DHT22;42600;54.408;13.016;2023-10-08T02:34:04;9.60;78.90
420;DHT22;42600;54.408;13.016;2023-10-08T02:36:33;9.50;79.10
420;DHT22;42600;54.408;13.016;2023-10-08T02:39:03;9.50;81.10
420;DHT22;42600;54.408;13.016;2023-10-08T02:41:31;9.40;80.90
420;DHT22;42600;54.408;13.016;2023-10-08T02:43:58;9.30;81.60
420;DHT22;42600;54.408;13.016;2023-10-08T02:46:25;9.30;81.30
420;DHT22;42600;54.408;13.016;2023-10-08T02:48:56;9.40;81.50
420;DHT22;42600;54.408;13.016;2023-10-08T02:51:23;9.30;82.00
420;DHT22;42600;54.408;13.016;2023-10-08T02:53:50;9.20;82.10
420;DHT22;42600;54.408;13.016;2023-10-08T02:56:16;9.20;82.50
420;DHT22;42600;54.408;13.016;2023-10-08T02:58:44;9.20;82.50
420;DHT22;42600;54.408;13.016;2023-10-08T03:01:12;9.20;82.60
420;DHT22;42600;54.408;13.016;2023-10-08T03:03:40;9.20;82.70
420;DHT22;42600;54.408;13.016;2023-10-08T03:06:09;9.20;82.80
420;DHT22;42600;54.408;13.016;2023-10-08T03:08:38;9.10;83.10
420;DHT22;42600;54.408;13.016;2023-10-08T03:11:09;9.10;83.10
420;DHT22;42600;54.408;13.016;2023-10-08T03:13:45;9.10;83.10
420;DHT22;42600;54.408;13.016;2023-10-08T03:16:17;9.00;83.40
420;DHT22;42600;54.408;13.016;2023-10-08T03:18:47;8.90;83.80
420;DHT22;42600;54.408;13.016;2023-10-08T03:21:17;8.90;83.70
420;DHT22;42600;54.408;13.016;2023-10-08T03:23:47;8.90;83.90
420;DHT22;42600;54.408;13.016;2023-10-08T03:26:14;8.80;84.30
420;DHT22;42600;54.408;13.016;2023-10-08T03:29:00;8.70;84.50
420;DHT22;42600;54.408;13.016;2023-10-08T03:31:30;8.60;85.40
420;DHT22;42600;54.408;13.016;2023-10-08T03:34:15;8.40;86.10
420;DHT22;42600;54.408;13.016;2023-10-08T03:36:46;8.30;86.90
420;DHT22;42600;54.408;13.016;2023-10-08T03:39:15;8.30;86.60
420;DHT22;42600;54.408;13.016;2023-10-08T03:41:44;8.30;85.90
420;DHT22;42600;54.408;13.016;2023-10-08T03:44:24;8.40;85.70
420;DHT22;42600;54.408;13.016;2023-10-08T03:46:55;8.40;85.60
420;DHT22;42600;54.408;13.016;2023-10-08T03:49:22;8.30;85.80
420;DHT22;42600;54.408;13.016;2023-10-08T03:51:53;8.20;86.50
420;DHT22;42600;54.408;13.016;2023-10-08T03:54:23;8.00;86.70
420;DHT22;42600;54.408;13.016;2023-10-08T03:56:55;8.00;87.10
420;DHT22;42600;54.408;13.016;2023-10-08T03:59:22;7.80;87.80
420;DHT22;42600;54.408;13.016;2023-10-08T04:01:57;7.60;88.70
420;DHT22;42600;54.408;13.016;2023-10-08T04:04:26;7.50;89.20
420;DHT22;42600;54.408;13.016;2023-10-08T04:07:02;7.40;89.20
420;DHT22;42600;54.408;13.016;2023-10-08T04:09:42;7.40;88.90
420;DHT22;42600;54.408;13.016;2023-10-08T04:12:09;7.40;88.90
420;DHT22;42600;54.408;13.016;2023-10-08T04:14:37;7.60;88.00
420;DHT22;42600;54.408;13.016;2023-10-08T04:17:03;7.70;87.60
420;DHT22;42600;54.408;13.016;2023-10-08T04:19:30;7.60;87.50
420;DHT22;42600;54.408;13.016;2023-10-08T04:21:57;7.60;87.30
420;DHT22;42600;54.408;13.016;2023-10-08T04:24:26;7.60;87.20
420;DHT22;42600;54.408;13.016;2023-10-08T04:27:00;7.60;87.00
420;DHT22;42600;54.408;13.016;2023-10-08T04:29:29;7.50;87.10
420;DHT22;42600;54.408;13.016;2023-10-08T04:31:58;7.60;87.00
420;DHT22;42600;54.408;13.016;2023-10-08T04:34:33;7.70;87.00
420;DHT22;42600;54.408;13.016;2023-10-08T04:37:00;7.60;86.40
420;DHT22;42600;54.408;13.016;2023-10-08T04:39:30;7.50;87.10
420;DHT22;42600;54.408;13.016;2023-10-08T04:42:00;7.40;87.10
420;DHT22;42600;54.408;13.016;2023-10-08T04:44:32;7.40;87.30
420;DHT22;42600;54.408;13.016;2023-10-08T04:46:59;7.40;87.20
420;DHT22;42600;54.408;13.016;2023-10-08T04:49:30;7.40;86.90
420;DHT22;42600;54.408;13.016;2023-10-08T04:51:59;7.30;87.10
420;DHT22;42600;54.408;13.016;2023-10-08T04:54:27;7.20;87.70
420;DHT22;42600;54.408;13.016;2023-10-08T04:56:58;7.10;88.30
420;DHT22;42600;54.408;13.016;2023-10-08T04:59:25;7.10;88.40
420;DHT22;42600;54.408;13.016;2023-10-08T05:01:58;7.20;88.80
420;DHT22;42600;54.408;13.016;2023-10-08T05:04:43;7.30;88.20
420;DHT22;42600;54.408;13.016;2023-10-08T05:07:22;7.40;87.40
420;DHT22;42600;54.408;13.016;2023-10-08T05:10:03;7.50;87.10
420;DHT22;42600;54.408;13.016;2023-10-08T05:12:57;7.60;86.80
420;DHT22;42600;54.408;13.016;2023-10-08T05:15:40;7.60;86.40
420;DHT22;42600;54.408;13.016;2023-10-08T05:18:15;7.60;86.20
420;DHT22;42600;54.408;13.016;2023-10-08T05:20:49;7.70;86.10
420;DHT22;42600;54.408;13.016;2023-10-08T05:23:40;7.60;86.10
420;DHT22;42600;54.408;13.016;2023-10-08T05:26:34;7.70;86.00
420;DHT22;42600;54.408;13.016;2023-10-08T05:29:08;7.70;85.90
420;DHT22;42600;54.408;13.016;2023-10-08T05:31:53;7.70;85.90
420;DHT22;42600;54.408;13.016;2023-10-08T05:34:40;7.60;85.80
420;DHT22;42600;54.408;13.016;2023-10-08T05:37:16;7.50;86.10
420;DHT22;42600;54.408;13.016;2023-10-08T05:40:11;7.60;86.00
420;DHT22;42600;54.408;13.016;2023-10-08T05:43:07;7.60;85.90
420;DHT22;42600;54.408;13.016;2023-10-08T05:45:48;7.60;86.00
420;DHT22;42600;54.408;13.016;2023-10-08T05:48:39;7.70;85.90
420;DHT22;42600;54.408;13.016;2023-10-08T05:51:10;7.70;85.70
420;DHT22;42600;54.408;13.016;2023-10-08T05:53:49;7.70;85.70
420;DHT22;42600;54.408;13.016;2023-10-08T05:56:22;7.70;85.70
420;DHT22;42600;54.408;13.016;2023-10-08T05:59:07;7.70;85.70
420;DHT22;42600;54.408;13.016;2023-10-08T06:01:43;7.80;85.70
420;DHT22;42600;54.408;13.016;2023-10-08T06:04:11;7.80;85.70
420;DHT22;42600;54.408;13.016;2023-10-08T06:06:56;7.80;85.70
420;DHT22;42600;54.408;13.016;2023-10-08T06:09:37;7.80;85.80
420;DHT22;42600;54.408;13.016;2023-10-08T06:12:06;7.90;85.70
420;DHT22;42600;54.408;13.016;2023-10-08T06:14:36;7.90;85.90
420;DHT22;42600;54.408;13.016;2023-10-08T06:17:19;7.90;85.80
420;DHT22;42600;54.408;13.016;2023-10-08T06:20:00;8.00;85.80
420;DHT22;42600;54.408;13.016;2023-10-08T06:22:35;8.10;85.60
420;DHT22;42600;54.408;13.016;2023-10-08T06:25:02;8.20;85.50
420;DHT22;42600;54.408;13.016;2023-10-08T06:27:44;8.30;85.60
420;DHT22;42600;54.408;13.016;2023-10-08T06:30:11;8.30;85.60
420;DHT22;42600;54.408;13.016;2023-10-08T06:32:43;8.40;85.40
420;DHT22;42600;54.408;13.016;2023-10-08T06:35:11;8.50;85.10
420;DHT22;42600;54.408;13.016;2023-10-08T06:37:43;8.50;85.10
420;DHT22;42600;54.408;13.016;2023-10-08T06:40:10;8.60;85.00
420;DHT22;42600;54.408;13.016;2023-10-08T06:43:00;8.70;85.00
420;DHT22;42600;54.408;13.016;2023-10-08T06:45:29;8.80;84.90
420;DHT22;42600;54.408;13.016;2023-10-08T06:47:58;8.90;84.80
420;DHT22;42600;54.408;13.016;2023-10-08T06:50:31;9.00;84.90
420;DHT22;42600;54.408;13.016;2023-10-08T06:52:59;9.10;85.50
420;DHT22;42600;54.408;13.016;2023-10-08T06:55:31;9.10;88.00
420;DHT22;42600;54.408;13.016;2023-10-08T06:58:00;9.20;87.20
420;DHT22;42600;54.408;13.016;2023-10-08T07:00:31;9.20;86.20
420;DHT22;42600;54.408;13.016;2023-10-08T07:03:05;9.20;86.00
420;DHT22;42600;54.408;13.016;2023-10-08T07:05:33;9.20;85.70
420;DHT22;42600;54.408;13.016;2023-10-08T07:08:02;9.20;85.70
420;DHT22;42600;54.408;13.016;2023-10-08T07:10:32;9.30;85.70
420;DHT22;42600;54.408;13.016;2023-10-08T07:13:01;9.30;88.80
420;DHT22;42600;54.408;13.016;2023-10-08T07:15:29;9.40;89.90
420;DHT22;42600;54.408;13.016;2023-10-08T07:17:56;9.60;90.10
420;DHT22;42600;54.408;13.016;2023-10-08T07:20:34;9.80;89.90
420;DHT22;42600;54.408;13.016;2023-10-08T07:23:04;10.00;89.30
420;DHT22;42600;54.408;13.016;2023-10-08T07:25:35;10.10;89.70
420;DHT22;42600;54.408;13.016;2023-10-08T07:28:05;10.10;90.10
420;DHT22;42600;54.408;13.016;2023-10-08T07:30:36;10.10;90.10
420;DHT22;42600;54.408;13.016;2023-10-08T07:33:05;10.20;89.90
420;DHT22;42600;54.408;13.016;2023-10-08T07:35:31;10.20;89.30
420;DHT22;42600;54.408;13.016;2023-10-08T07:38:04;10.20;89.50
420;DHT22;42600;54.408;13.016;2023-10-08T07:40:35;10.20;88.20
420;DHT22;42600;54.408;13.016;2023-10-08T07:43:03;10.30;88.90
420;DHT22;42600;54.408;13.016;2023-10-08T07:45:35;10.30;88.20
420;DHT22;42600;54.408;13.016;2023-10-08T07:48:01;10.30;87.80
420;DHT22;42600;54.408;13.016;2023-10-08T07:50:33;10.30;87.50
420;DHT22;42600;54.408;13.016;2023-10-08T07:52:59;10.40;87.60
420;DHT22;42600;54.408;13.016;2023-10-08T07:55:29;10.40;87.10
420;DHT22;42600;54.408;13.016;2023-10-08T07:57:58;10.60;86.50
420;DHT22;42600;54.408;13.016;2023-10-08T08:00:24;10.70;86.00
420;DHT22;42600;54.408;13.016;2023-10-08T08:02:57;10.90;83.50
420;DHT22;42600;54.408;13.016;2023-10-08T08:05:24;11.00;83.60
420;DHT22;42600;54.408;13.016;2023-10-08T08:07:50;11.10;83.10
420;DHT22;42600;54.408;13.016;2023-10-08T08:10:17;11.20;82.40
420;DHT22;42600;54.408;13.016;2023-10-08T08:12:44;11.30;81.00
420;DHT22;42600;54.408;13.016;2023-10-08T08:15:11;11.40;79.50
420;DHT22;42600;54.408;13.016;2023-10-08T08:17:41;11.50;80.90
420;DHT22;42600;54.408;13.016;2023-10-08T08:20:10;11.60;79.50
420;DHT22;42600;54.408;13.016;2023-10-08T08:22:44;11.70;79.70
420;DHT22;42600;54.408;13.016;2023-10-08T08:25:17;11.80;78.60
420;DHT22;42600;54.408;13.016;2023-10-08T08:27:59;11.90;79.10
420;DHT22;42600;54.408;13.016;2023-10-08T08:30:25;11.80;76.60
420;DHT22;42600;54.408;13.016;2023-10-08T08:32:52;11.90;78.20
420;DHT22;42600;54.408;13.016;2023-10-08T08:35:22;12.00;78.20
420;DHT22;42600;54.408;13.016;2023-10-08T08:37:49;12.10;78.40
420;DHT22;42600;54.408;13.016;2023-10-08T08:40:18;12.20;78.70
420;DHT22;42600;54.408;13.016;2023-10-08T08:42:45;12.30;78.20
420;DHT22;42600;54.408;13.016;2023-10-08T08:45:15;12.30;78.10
420;DHT22;42600;54.408;13.016;2023-10-08T08:47:45;12.40;78.70
420;DHT22;42600;54.408;13.016;2023-10-08T08:50:11;12.50;78.60
420;DHT22;42600;54.408;13.016;2023-10-08T08:52:40;12.50;77.30
420;DHT22;42600;54.408;13.016;2023-10-08T08:55:08;12.50;77.80
420;DHT22;42600;54.408;13.016;2023-10-08T08:57:41;12.50;77.90
420;DHT22;42600;54.408;13.016;2023-10-08T09:00:11;12.50;77.70
420;DHT22;42600;54.408;13.016;2023-10-08T09:02:38;12.50;77.30
420;DHT22;42600;54.408;13.016;2023-10-08T09:05:05;12.60;77.70
420;DHT22;42600;54.408;13.016;2023-10-08T09:07:55;12.60;77.60
420;DHT22;42600;54.408;13.016;2023-10-08T09:10:22;12.60;76.50
420;DHT22;42600;54.408;13.016;2023-10-08T09:12:52;12.50;74.90
420;DHT22;42600;54.408;13.016;2023-10-08T09:15:19;12.40;76.00
420;DHT22;42600;54.408;13.016;2023-10-08T09:17:48;12.20;74.80
420;DHT22;42600;54.408;13.016;2023-10-08T09:20:14;12.20;74.30
420;DHT22;42600;54.408;13.016;2023-10-08T09:22:42;12.20;74.20
420;DHT22;42600;54.408;13.016;2023-10-08T09:25:11;12.10;72.40
420;DHT22;42600;54.408;13.016;2023-10-08T09:27:39;12.20;72.00
420;DHT22;42600;54.408;13.016;2023-10-08T09:30:12;12.20;72.40
420;DHT22;42600;54.408;13.016;2023-10-08T09:32:44;12.10;71.90
420;DHT22;42600;54.408;13.016;2023-10-08T09:35:12;12.10;71.10
420;DHT22;42600;54.408;13.016;2023-10-08T09:37:39;12.20;70.70
420;DHT22;42600;54.408;13.016;2023-10-08T09:40:07;12.20;67.00
420;DHT22;42600;54.408;13.016;2023-10-08T09:42:38;12.30;66.90
420;DHT22;42600;54.408;13.016;2023-10-08T09:45:05;12.30;64.60
420;DHT22;42600;54.408;13.016;2023-10-08T09:47:36;12.40;65.30
420;DHT22;42600;54.408;13.016;2023-10-08T09:50:03;12.40;63.30
420;DHT22;42600;54.408;13.016;2023-10-08T09:52:37;12.50;63.40
420;DHT22;42600;54.408;13.016;2023-10-08T09:55:08;12.50;62.90
420;DHT22;42600;54.408;13.016;2023-10-08T09:57:38;12.50;61.40
420;DHT22;42600;54.408;13.016;2023-10-08T10:00:06;12.40;61.00
420;DHT22;42600;54.408;13.016;2023-10-08T10:02:36;12.50;62.30
420;DHT22;42600;54.408;13.016;2023-10-08T10:05:03;12.50;61.20
420;DHT22;42600;54.408;13.016;2023-10-08T10:07:31;12.40;59.40
420;DHT22;42600;54.408;13.016;2023-10-08T10:09:58;12.50;59.80
420;DHT22;42600;54.408;13.016;2023-10-08T10:12:26;12.50;60.20
420;DHT22;42600;54.408;13.016;2023-10-08T10:14:55;12.50;60.20
420;DHT22;42600;54.408;13.016;2023-10-08T10:17:24;12.50;61.20
420;DHT22;42600;54.408;13.016;2023-10-08T10:19:54;12.70;63.20
420;DHT22;42600;54.408;13.016;2023-10-08T10:22:28;12.60;62.60
420;DHT22;42600;54.408;13.016;2023-10-08T10:24:56;12.70;64.20
420;DHT22;42600;54.408;13.016;2023-10-08T10:27:23;12.70;64.90
420;DHT22;42600;54.408;13.016;2023-10-08T10:29:50;12.80;65.90
420;DHT22;42600;54.408;13.016;2023-10-08T10:32:19;12.90;64.80
420;DHT22;42600;54.408;13.016;2023-10-08T10:34:45;12.90;66.00
420;DHT22;42600;54.408;13.016;2023-10-08T10:37:19;12.90;64.40
420;DHT22;42600;54.408;13.016;2023-10-08T10:39:53;12.80;64.00
420;DHT22;42600;54.408;13.016;2023-10-08T10:42:21;12.80;64.40
420;DHT22;42600;54.408;13.016;2023-10-08T10:44:49;12.70;65.10
420;DHT22;42600;54.408;13.016;2023-10-08T10:47:17;12.90;66.50
420;DHT22;42600;54.408;13.016;2023-10-08T10:49:54;13.00;66.40
420;DHT22;42600;54.408;13.016;2023-10-08T10:52:35;12.90;65.10
420;DHT22;42600;54.408;13.016;2023-10-08T10:55:12;12.90;66.10
420;DHT22;42600;54.408;13.016;2023-10-08T10:57:49;12.80;62.50
420;DHT22;42600;54.408;13.016;2023-10-08T11:00:21;12.70;61.50
420;DHT22;42600;54.408;13.016;2023-10-08T11:03:08;12.60;61.70
420;DHT22;42600;54.408;13.016;2023-10-08T11:05:45;12.60;60.60
420;DHT22;42600;54.408;13.016;2023-10-08T11:08:17;12.70;60.00
420;DHT22;42600;54.408;13.016;2023-10-08T11:10:46;12.70;60.50
420;DHT22;42600;54.408;13.016;2023-10-08T11:13:16;12.70;59.00
420;DHT22;42600;54.408;13.016;2023-10-08T11:15:44;12.60;57.90
420;DHT22;42600;54.408;13.016;2023-10-08T11:18:16;12.70;58.00
420;DHT22;42600;54.408;13.016;2023-10-08T11:20:45;12.70;58.30
420;DHT22;42600;54.408;13.016;2023-10-08T11:23:11;12.70;58.40
420;DHT22;42600;54.408;13.016;2023-10-08T11:25:55;13.00;63.30
420;DHT22;42600;54.408;13.016;2023-10-08T11:28:26;13.00;60.00
420;DHT22;42600;54.408;13.016;2023-10-08T11:30:53;12.80;57.50
420;DHT22;42600;54.408;13.016;2023-10-08T11:33:19;12.70;58.10
420;DHT22;42600;54.408;13.016;2023-10-08T11:35:57;12.60;57.90
420;DHT22;42600;54.408;13.016;2023-10-08T11:38:25;12.60;57.30
420;DHT22;42600;54.408;13.016;2023-10-08T11:40:53;12.60;57.10
420;DHT22;42600;54.408;13.016;2023-10-08T11:43:22;12.70;58.50
420;DHT22;42600;54.408;13.016;2023-10-08T11:45:48;12.70;58.60
420;DHT22;42600;54.408;13.016;2023-10-08T11:48:15;12.70;57.80
420;DHT22;42600;54.408;13.016;2023-10-08T11:50:47;12.60;56.70
420;DHT22;42600;54.408;13.016;2023-10-08T11:53:17;12.60;58.00
420;DHT22;42600;54.408;13.016;2023-10-08T11:55:45;12.60;58.90
420;DHT22;42600;54.408;13.016;2023-10-08T11:58:13;12.60;57.70
420;DHT22;42600;54.408;13.016;2023-10-08T12:00:44;12.60;57.30
420;DHT22;42600;54.408;13.016;2023-10-08T12:03:11;12.50;55.90
420;DHT22;42600;54.408;13.016;2023-10-08T12:05:38;12.40;56.70
420;DHT22;42600;54.408;13.016;2023-10-08T12:08:13;12.40;57.30
420;DHT22;42600;54.408;13.016;2023-10-08T12:10:41;12.40;57.50
420;DHT22;42600;54.408;13.016;2023-10-08T12:13:08;12.50;57.30
420;DHT22;42600;54.408;13.016;2023-10-08T12:15:35;12.60;56.40
420;DHT22;42600;54.408;13.016;2023-10-08T12:18:05;12.40;54.70
420;DHT22;42600;54.408;13.016;2023-10-08T12:20:38;12.30;54.90
420;DHT22;42600;54.408;13.016;2023-10-08T12:23:09;12.30;55.30
420;DHT22;42600;54.408;13.016;2023-10-08T12:25:37;12.30;56.40
420;DHT22;42600;54.408;13.016;2023-10-08T12:28:05;12.20;56.00
420;DHT22;42600;54.408;13.016;2023-10-08T12:30:32;12.40;57.70
420;DHT22;42600;54.408;13.016;2023-10-08T12:33:07;12.30;58.20
420;DHT22;42600;54.408;13.016;2023-10-08T12:35:38;12.30;60.00
420;DHT22;42600;54.408;13.016;2023-10-08T12:38:05;12.30;59.40
420;DHT22;42600;54.408;13.016;2023-10-08T12:40:31;12.20;59.40
420;DHT22;42600;54.408;13.016;2023-10-08T12:43:09;12.20;59.80
420;DHT22;42600;54.408;13.016;2023-10-08T12:45:36;12.10;59.80
420;DHT22;42600;54.408;13.016;2023-10-08T12:48:03;12.00;60.50
420;DHT22;42600;54.408;13.016;2023-10-08T12:50:30;12.10;60.90
420;DHT22;42600;54.408;13.016;2023-10-08T12:53:07;12.10;60.90
420;DHT22;42600;54.408;13.016;2023-10-08T12:55:37;12.00;60.10
420;DHT22;42600;54.408;13.016;2023-10-08T12:58:05;12.10;61.30
420;DHT22;42600;54.408;13.016;2023-10-08T13:00:36;12.10;61.30
420;DHT22;42600;54.408;13.016;2023-10-08T13:03:04;12.00;61.80
420;DHT22;42600;54.408;13.016;2023-10-08T13:05:40;12.00;61.70
420;DHT22;42600;54.408;13.016;2023-10-08T13:08:09;12.00;62.00
420;DHT22;42600;54.408;13.016;2023-10-08T13:10:39;11.90;60.70
420;DHT22;42600;54.408;13.016;2023-10-08T13:13:10;12.00;61.10
420;DHT22;42600;54.408;13.016;2023-10-08T13:15:39;11.80;61.60
420;DHT22;42600;54.408;13.016;2023-10-08T13:18:07;12.00;63.60
420;DHT22;42600;54.408;13.016;2023-10-08T13:20:34;11.90;62.40
420;DHT22;42600;54.408;13.016;2023-10-08T13:23:00;11.90;62.60
420;DHT22;42600;54.408;13.016;2023-10-08T13:25:27;11.90;63.50
420;DHT22;42600;54.408;13.016;2023-10-08T13:27:56;12.00;63.50
420;DHT22;42600;54.408;13.016;2023-10-08T13:30:22;12.00;63.80
420;DHT22;42600;54.408;13.016;2023-10-08T13:32:50;12.00;65.20
420;DHT22;42600;54.408;13.016;2023-10-08T13:35:17;12.10;64.40
420;DHT22;42600;54.408;13.016;2023-10-08T13:37:44;12.10;63.70
420;DHT22;42600;54.408;13.016;2023-10-08T13:40:13;12.30;65.80
420;DHT22;42600;54.408;13.016;2023-10-08T13:42:41;12.20;63.00
420;DHT22;42600;54.408;13.016;2023-10-08T13:45:08;12.10;63.70
420;DHT22;42600;54.408;13.016;2023-10-08T13:47:41;12.10;64.10
420;DHT22;42600;54.408;13.016;2023-10-08T13:50:09;12.10;65.10
420;DHT22;42600;54.408;13.016;2023-10-08T13:52:38;12.10;64.40
420;DHT22;42600;54.408;13.016;2023-10-08T13:55:06;12.10;64.90
420;DHT22;42600;54.408;13.016;2023-10-08T13:57:39;12.20;67.00
420;DHT22;42600;54.408;13.016;2023-10-08T14:00:08;12.30;64.50
420;DHT22;42600;54.408;13.016;2023-10-08T14:02:41;12.30;66.40
420;DHT22;42600;54.408;13.016;2023-10-08T14:05:09;12.10;63.90
420;DHT22;42600;54.408;13.016;2023-10-08T14:07:35;12.20;66.00
420;DHT22;42600;54.408;13.016;2023-10-08T14:10:04;12.20;65.20
420;DHT22;42600;54.408;13.016;2023-10-08T14:12:33;12.30;68.10
420;DHT22;42600;54.408;13.016;2023-10-08T14:15:00;12.30;65.30
420;DHT22;42600;54.408;13.016;2023-10-08T14:17:32;12.30;66.40
420;DHT22;42600;54.408;13.016;2023-10-08T14:20:10;12.20;64.00
420;DHT22;42600;54.408;13.016;2023-10-08T14:22:39;12.10;64.80
420;DHT22;42600;54.408;13.016;2023-10-08T14:25:08;12.30;64.70
420;DHT22;42600;54.408;13.016;2023-10-08T14:27:37;12.20;65.20
420;DHT22;42600;54.408;13.016;2023-10-08T14:30:06;12.10;65.50
420;DHT22;42600;54.408;13.016;2023-10-08T14:32:40;12.10;66.30
420;DHT22;42600;54.408;13.016;2023-10-08T14:35:12;12.00;65.00
420;DHT22;42600;54.408;13.016;2023-10-08T14:37:56;12.00;66.70
420;DHT22;42600;54.408;13.016;2023-10-08T14:40:40;12.10;66.70
420;DHT22;42600;54.408;13.016;2023-10-08T14:43:24;12.10;66.00
420;DHT22;42600;54.408;13.016;2023-10-08T14:45:54;12.00;66.30
420;DHT22;42600;54.408;13.016;2023-10-08T14:48:21;12.00;68.20
420;DHT22;42600;54.408;13.016;2023-10-08T14:50:50;12.10;68.40
420;DHT22;42600;54.408;13.016;2023-10-08T14:53:16;12.00;66.20
420;DHT22;42600;54.408;13.016;2023-10-08T14:55:43;12.00;65.80
420;DHT22;42600;54.408;13.016;2023-10-08T14:58:10;12.10;66.10
420;DHT22;42600;54.408;13.016;2023-10-08T15:00:37;12.00;66.30
420;DHT22;42600;54.408;13.016;2023-10-08T15:03:07;11.90;66.70
420;DHT22;42600;54.408;13.016;2023-10-08T15:05:34;11.80;65.90
420;DHT22;42600;54.408;13.016;2023-10-08T15:08:03;11.90;66.90
420;DHT22;42600;54.408;13.016;2023-10-08T15:10:35;11.90;66.50
420;DHT22;42600;54.408;13.016;2023-10-08T15:13:01;11.80;66.30
420;DHT22;42600;54.408;13.016;2023-10-08T15:15:28;11.80;67.60
420;DHT22;42600;54.408;13.016;2023-10-08T15:18:00;11.80;67.60
420;DHT22;42600;54.408;13.016;2023-10-08T15:20:27;11.70;67.70
420;DHT22;42600;54.408;13.016;2023-10-08T15:22:57;11.60;68.40
420;DHT22;42600;54.408;13.016;2023-10-08T15:25:25;11.60;67.80
420;DHT22;42600;54.408;13.016;2023-10-08T15:27:52;11.60;67.40
420;DHT22;42600;54.408;13.016;2023-10-08T15:30:19;11.60;68.00
420;DHT22;42600;54.408;13.016;2023-10-08T15:32:48;11.60;67.50
420;DHT22;42600;54.408;13.016;2023-10-08T15:35:16;11.40;65.80
420;DHT22;42600;54.408;13.016;2023-10-08T15:37:45;11.40;65.60
420;DHT22;42600;54.408;13.016;2023-10-08T15:40:12;11.30;65.90
420;DHT22;42600;54.408;13.016;2023-10-08T15:42:48;11.30;64.80
420;DHT22;42600;54.408;13.016;2023-10-08T15:45:15;11.20;64.40
420;DHT22;42600;54.408;13.016;2023-10-08T15:47:42;11.20;64.30
420;DHT22;42600;54.408;13.016;2023-10-08T15:50:09;11.10;63.80
420;DHT22;42600;54.408;13.016;2023-10-08T15:52:36;11.10;65.30
420;DHT22;42600;54.408;13.016;2023-10-08T15:55:03;11.10;65.70
420;DHT22;42600;54.408;13.016;2023-10-08T15:57:30;11.00;65.90
420;DHT22;42600;54.408;13.016;2023-10-08T15:59:58;11.00;64.40
420;DHT22;42600;54.408;13.016;2023-10-08T16:02:25;10.90;64.20
420;DHT22;42600;54.408;13.016;2023-10-08T16:04:51;10.80;63.30
420;DHT22;42600;54.408;13.016;2023-10-08T16:07:19;10.80;63.40
420;DHT22;42600;54.408;13.016;2023-10-08T16:09:46;10.80;63.20
420;DHT22;42600;54.408;13.016;2023-10-08T16:12:12;10.70;63.40